Willcox, Arizona
Current Conditions -  °F | °C
As of 12:51 AM on Tuesday 27 Jan 2015 (Local Time) from KSAD Reporting Station
Overcast Overcast  
Wind Chill: 13°   Ceiling: 8500
Heat Index: 13°   Visibility: 10mi
Dew Point:   Wind: 12mph
Humidity: 45%   Direction: 90°E
Pressure: 30.26"   Gusts: NA
Location:  32.25°N, 109.84°W
Report Text: KSAD 270751Z AUTO 09010KT 10SM BKN085 OVC120 13/02 A3026 RMK AO2 SLP220 T01330017
Loading
Personal Weather Stations






























Interactive Weather Map New forecast layout! Learn more

10-Day Weather Forecast

Advertisements
Track Severe Weather on mobile